Time;durP1;ratioP1;P1;durP2;ratioP2;P2;SDS_P1;SDS_P2;PMS_P1;PMS_P2;Temp;Humidity;BMP_temperature;BMP_pressure;BME280_temperature;BME280_humidity;BME280_pressure;Samples;Min_cycle;Max_cycle;Signal;HPM_P1;HPM_P2
2021/10/03 00:02:06;;;;;;;;;;;;;;;7.55;89.58;101021.89;1343977;92;20232;-94
2021/10/03 00:04:34;;;;;;;;;;;;;;;7.53;89.47;101022.95;1326384;94;20915;-91
2021/10/03 00:14:41;;;;;;;;;;;;;;;7.33;92.32;101025.73;1360008;87;20247;-95
2021/10/03 00:17:25;;;;;;;;;;;;;;;7.32;91.70;101030.64;1358874;88;20262;-95
2021/10/03 00:19:51;;;;;;;;;;;;;;;7.31;91.27;101027.63;1379061;88;22122;-95
2021/10/03 00:22:17;;;;;;;;;;;;;;;7.33;90.41;101019.14;1350909;89;20355;-94
2021/10/03 00:24:47;;;;;;;;;;;;;;;7.34;89.80;101011.14;1356828;88;20229;31
2021/10/03 00:29:48;;;;;;;;;;;;;;;7.42;89.42;101008.80;1350433;88;20403;31
2021/10/03 00:32:17;;;;;;;;;;;;;;;7.46;89.05;101009.41;1331841;88;20300;31
2021/10/03 00:34:45;;;;;;;;;;;;;;;7.46;89.03;101013.35;1351844;88;20352;31
2021/10/03 00:40:05;;;;;;;;;;;;;;;7.41;88.96;101007.58;1350110;88;21916;31
2021/10/03 00:42:32;;;;;;;;;;;;;;;7.36;89.07;101011.02;1354923;88;20300;31
2021/10/03 00:47:53;;;;;;;;;;;;;;;7.26;89.54;101017.92;1349853;88;21705;31
2021/10/03 00:52:48;;;;;;;;;;;;;;;7.16;89.80;101019.92;1352451;92;20240;-94
2021/10/03 00:57:44;;;;;;;;;;;;;;;7.02;89.82;101020.07;1353338;88;20257;-96
2021/10/03 01:00:16;;;;;;;;;;;;;;;6.94;89.60;101019.77;1349689;88;20370;31
2021/10/03 01:02:42;;;;;;;;;;;;;;;6.85;90.23;101034.42;1380272;86;20444;-94
2021/10/03 01:05:08;;;;;;;;;;;;;;;6.83;89.97;101023.64;1403827;88;20701;-96
2021/10/03 01:26:45;;;;;;;;;;;;;;;6.59;92.23;101009.09;1381186;87;20470;31
2021/10/03 01:32:03;;;;;;;;;;;;;;;6.61;91.68;101010.67;1372333;86;20469;31
2021/10/03 01:34:35;;;;;;;;;;;;;;;6.58;91.44;101009.58;1381609;87;21361;31
2021/10/03 01:44:50;;;;;;;;;;;;;;;6.57;89.45;101001.33;1377016;88;20344;31
2021/10/03 01:50:13;;;;;;;;;;;;;;;6.59;89.35;101001.20;1350824;86;20253;-93
2021/10/03 01:52:39;;;;;;;;;;;;;;;6.59;88.91;100999.44;1342483;92;20254;-94
2021/10/03 01:55:06;;;;;;;;;;;;;;;6.56;89.25;100998.34;1342694;92;20913;-93
2021/10/03 01:57:33;;;;;;;;;;;;;;;6.51;89.52;100997.34;1343362;92;20364;-93
2021/10/03 02:00:08;;;;;;;;;;;;;;;6.44;89.86;101005.75;1344370;92;20752;-93
2021/10/03 02:02:35;;;;;;;;;;;;;;;6.37;90.29;101005.83;1345882;92;20209;-95
2021/10/03 02:09:58;;;;;;;;;;;;;;;6.14;90.36;101006.93;1383489;86;22014;31
2021/10/03 02:12:28;;;;;;;;;;;;;;;6.06;90.17;101006.13;1372894;86;20340;31
2021/10/03 02:17:32;;;;;;;;;;;;;;;5.94;91.58;101014.02;1367249;86;20444;31
2021/10/03 02:55:29;;;;;;;;;;;;;;;5.75;92.65;101038.00;1315254;90;21265;31
2021/10/03 03:00:57;;;;;;;;;;;;;;;5.72;91.65;101042.98;1350874;90;20325;31
2021/10/03 03:06:14;;;;;;;;;;;;;;;5.66;92.39;101042.08;1355729;89;21664;31
2021/10/03 03:08:41;;;;;;;;;;;;;;;5.59;92.94;101043.44;1345679;89;20282;31
2021/10/03 03:11:13;;;;;;;;;;;;;;;5.53;92.76;101042.05;1367348;87;20366;31
2021/10/03 03:13:45;;;;;;;;;;;;;;;5.50;92.95;101039.63;1334612;91;20442;31
2021/10/03 03:24:49;;;;;;;;;;;;;;;5.35;92.43;101037.53;1375370;87;20532;31
2021/10/03 03:35:45;;;;;;;;;;;;;;;5.40;92.54;101040.67;1371419;87;20787;31
2021/10/03 03:38:11;;;;;;;;;;;;;;;5.48;92.04;101041.98;1373805;87;20371;31
2021/10/03 03:40:39;;;;;;;;;;;;;;;5.50;92.36;101045.35;1388343;86;21309;31
2021/10/03 03:43:08;;;;;;;;;;;;;;;5.51;92.14;101045.71;1360304;86;20306;31
2021/10/03 03:45:38;;;;;;;;;;;;;;;5.53;92.11;101043.84;1349734;86;20251;31
2021/10/03 03:48:04;;;;;;;;;;;;;;;5.51;92.14;101038.67;1382073;86;20471;-87
2021/10/03 03:50:31;;;;;;;;;;;;;;;5.51;92.56;101039.15;1380336;86;20278;-89
2021/10/03 03:52:57;;;;;;;;;;;;;;;5.50;92.37;101038.79;1383301;89;20203;-94
2021/10/03 03:55:25;;;;;;;;;;;;;;;5.48;92.36;101038.88;1383507;89;20716;-93
2021/10/03 03:58:01;;;;;;;;;;;;;;;5.45;92.77;101033.83;1383918;89;20256;-95
2021/10/03 04:00:27;;;;;;;;;;;;;;;5.43;92.74;101043.58;1390017;87;20259;-93
2021/10/03 04:02:53;;;;;;;;;;;;;;;5.40;92.67;101039.36;1403773;88;20281;-93
2021/10/03 04:05:19;;;;;;;;;;;;;;;5.37;92.91;101040.04;1401907;88;20223;-94
2021/10/03 04:13:16;;;;;;;;;;;;;;;5.25;94.28;101045.61;1364187;88;20278;31
2021/10/03 04:15:44;;;;;;;;;;;;;;;5.23;93.41;101046.17;1366636;88;20219;-93
2021/10/03 04:18:10;;;;;;;;;;;;;;;5.28;93.70;101047.20;1358522;91;20249;-94
2021/10/03 04:20:39;;;;;;;;;;;;;;;5.32;93.57;101048.67;1359500;91;20814;-92
2021/10/03 04:23:05;;;;;;;;;;;;;;;5.36;93.55;101040.52;1358417;91;20287;-93
2021/10/03 04:25:31;;;;;;;;;;;;;;;5.43;93.50;101044.89;1358555;91;20248;-93
2021/10/03 04:27:57;;;;;;;;;;;;;;;5.47;93.09;101042.45;1356866;91;20250;-93
2021/10/03 04:32:54;;;;;;;;;;;;;;;5.52;92.17;101042.14;1399508;87;20253;-94
2021/10/03 04:35:21;;;;;;;;;;;;;;;5.54;92.19;101045.51;1401553;88;20278;-92
2021/10/03 04:37:48;;;;;;;;;;;;;;;5.50;92.27;101044.88;1401824;88;20796;-93
2021/10/03 04:40:14;;;;;;;;;;;;;;;5.47;91.67;101049.02;1401460;88;20698;-94
2021/10/03 04:42:40;;;;;;;;;;;;;;;5.46;91.79;101046.00;1402251;88;21177;-93
2021/10/03 04:45:08;;;;;;;;;;;;;;;5.43;91.81;101043.09;1401232;88;20787;-93
2021/10/03 04:47:34;;;;;;;;;;;;;;;5.42;91.93;101037.48;1403070;88;20242;-94
2021/10/03 04:50:01;;;;;;;;;;;;;;;5.40;92.00;101043.78;1402486;87;20883;-92
2021/10/03 04:52:29;;;;;;;;;;;;;;;5.38;92.13;101041.27;1401017;88;20315;-92
2021/10/03 04:55:02;;;;;;;;;;;;;;;5.35;92.33;101047.16;1399926;88;20244;-93
2021/10/03 04:57:28;;;;;;;;;;;;;;;5.32;92.42;101046.92;1399941;88;20728;-92
2021/10/03 04:59:54;;;;;;;;;;;;;;;5.33;92.25;101047.27;1400579;88;20720;-93
2021/10/03 05:02:20;;;;;;;;;;;;;;;5.33;92.26;101047.75;1401156;88;20839;-94
2021/10/03 05:04:46;;;;;;;;;;;;;;;5.32;92.47;101053.48;1400722;88;20238;-92
2021/10/03 05:07:12;;;;;;;;;;;;;;;5.30;93.34;101057.98;1399889;88;20244;-92
2021/10/03 05:09:39;;;;;;;;;;;;;;;5.27;93.48;101059.48;1394657;88;20789;-93
2021/10/03 05:12:07;;;;;;;;;;;;;;;5.26;93.16;101056.47;1393267;89;20787;-91
2021/10/03 05:14:33;;;;;;;;;;;;;;;5.29;93.38;101062.00;1393558;90;20350;-92
2021/10/03 05:17:05;;;;;;;;;;;;;;;5.31;93.71;101060.95;1392724;88;20743;-93
2021/10/03 05:19:31;;;;;;;;;;;;;;;5.37;93.91;101059.25;1400170;89;20278;-92
2021/10/03 05:21:57;;;;;;;;;;;;;;;5.45;93.46;101061.87;1393793;88;21652;-93
2021/10/03 05:24:24;;;;;;;;;;;;;;;5.52;92.92;101071.02;1398720;90;20772;-93
2021/10/03 05:26:50;;;;;;;;;;;;;;;5.61;92.54;101071.73;1399398;88;20274;-92
2021/10/03 05:29:16;;;;;;;;;;;;;;;5.76;92.71;101079.10;1400457;88;20813;-92
2021/10/03 05:31:42;;;;;;;;;;;;;;;5.90;92.70;101077.72;1399248;88;20861;-93
2021/10/03 05:36:37;;;;;;;;;;;;;;;6.18;92.18;101087.23;1377979;85;20296;31
2021/10/03 05:39:03;;;;;;;;;;;;;;;6.30;92.43;101084.25;1387545;86;23265;-92
2021/10/03 05:41:33;;;;;;;;;;;;;;;6.44;92.74;101088.58;1338621;88;20310;31
2021/10/03 05:43:59;;;;;;;;;;;;;;;6.53;93.25;101091.44;1370946;87;20256;-89
2021/10/03 05:49:05;;;;;;;;;;;;;;;6.66;92.19;101092.73;1372834;87;22038;-89
2021/10/03 05:51:35;;;;;;;;;;;;;;;6.71;92.10;101090.64;1328839;89;20310;31
2021/10/03 05:54:06;;;;;;;;;;;;;;;6.77;92.69;101094.16;1343448;89;20605;31
2021/10/03 05:56:48;;;;;;;;;;;;;;;6.85;93.06;101088.37;1368825;87;20255;-93
2021/10/03 05:59:16;;;;;;;;;;;;;;;6.98;93.27;101090.97;1368955;87;20642;-92
2021/10/03 06:01:42;;;;;;;;;;;;;;;7.14;93.34;101090.73;1343924;92;20297;-92
2021/10/03 06:04:09;;;;;;;;;;;;;;;7.29;93.46;101091.42;1344386;91;20303;-93
2021/10/03 06:06:35;;;;;;;;;;;;;;;7.44;93.50;101085.05;1344823;91;20720;-92
2021/10/03 06:09:03;;;;;;;;;;;;;;;7.58;93.36;101086.20;1344797;91;20680;-94
2021/10/03 06:11:30;;;;;;;;;;;;;;;7.74;93.81;101091.64;1352659;89;20746;-93
2021/10/03 06:13:57;;;;;;;;;;;;;;;7.87;93.64;101094.59;1349927;91;20750;-95
2021/10/03 06:16:42;;;;;;;;;;;;;;;8.02;93.38;101104.46;1366833;88;20315;-92
2021/10/03 06:19:36;;;;;;;;;;;;;;;;;;;;;
2021/10/03 06:30:24;;;;;;;;;;;;;;;8.84;91.15;101104.42;1265505;95;20440;31
2021/10/03 06:33:00;;;;;;;;;;;;;;;9.03;90.81;101099.38;1294434;97;20350;-93
2021/10/03 06:37:56;;;;;;;;;;;;;;;9.44;89.61;101112.89;1317706;92;20249;-89
2021/10/03 06:56:01;;;;;;;;;;;;;;;10.60;87.57;101114.31;1334641;92;20275;-88
2021/10/03 06:58:48;;;;;;;;;;;;;;;10.80;87.57;101112.11;1342022;92;20261;-87
2021/10/03 07:01:15;;;;;;;;;;;;;;;10.96;87.07;101108.13;1348397;91;20338;-85
2021/10/03 07:03:42;;;;;;;;;;;;;;;11.11;85.21;101113.43;1347108;92;20260;-87
2021/10/03 07:06:08;;;;;;;;;;;;;;;11.15;84.05;101118.80;1349085;92;20276;-85
2021/10/03 07:08:36;;;;;;;;;;;;;;;11.29;84.74;101115.77;1348320;91;20389;-86
2021/10/03 07:11:04;;;;;;;;;;;;;;;11.44;83.40;101122.02;1347872;92;20333;-85
2021/10/03 07:13:30;;;;;;;;;;;;;;;11.50;82.13;101122.79;1347821;92;20306;-85
2021/10/03 07:15:56;;;;;;;;;;;;;;;11.69;82.44;101114.05;1347659;92;20267;-86
2021/10/03 07:18:27;;;;;;;;;;;;;;;11.87;82.70;101115.05;1348160;92;21178;-85
2021/10/03 07:20:54;;;;;;;;;;;;;;;12.09;83.07;101116.59;1346767;92;20870;-86
2021/10/03 07:23:20;;;;;;;;;;;;;;;12.16;81.45;101116.86;1347294;92;20758;-85
2021/10/03 07:25:46;;;;;;;;;;;;;;;12.38;81.78;101115.73;1347365;92;20260;-85
2021/10/03 07:28:12;;;;;;;;;;;;;;;12.60;81.42;101119.38;1362162;92;20347;-86
2021/10/03 07:30:38;;;;;;;;;;;;;;;12.76;80.22;101123.24;1353994;92;20734;-86
2021/10/03 07:33:04;;;;;;;;;;;;;;;12.88;79.75;101115.44;1368923;90;20792;-87
2021/10/03 07:35:30;;;;;;;;;;;;;;;13.09;80.92;101108.58;1368818;91;20251;-86
2021/10/03 07:37:56;;;;;;;;;;;;;;;13.31;80.93;101117.99;1368887;90;20763;-86
2021/10/03 07:40:22;;;;;;;;;;;;;;;13.50;79.97;101113.06;1368894;90;20250;-86
2021/10/03 07:42:49;;;;;;;;;;;;;;;13.60;78.20;101114.31;1368559;90;20250;-86
2021/10/03 07:45:16;;;;;;;;;;;;;;;13.76;78.96;101115.32;1368702;90;20384;-86
2021/10/03 07:47:42;;;;;;;;;;;;;;;13.88;77.20;101113.27;1368725;90;20755;-86
2021/10/03 07:50:10;;;;;;;;;;;;;;;13.98;77.71;101117.16;1368769;90;20228;-86
2021/10/03 07:52:36;;;;;;;;;;;;;;;14.08;77.55;101118.44;1369179;90;20786;-85
2021/10/03 07:55:02;;;;;;;;;;;;;;;14.23;77.84;101120.88;1363508;90;20321;-86
2021/10/03 07:57:28;;;;;;;;;;;;;;;14.40;77.64;101121.34;1357846;91;20303;-87
2021/10/03 08:00:47;;;;;;;;;;;;;;;14.59;77.78;101115.52;1357577;91;20243;-86
2021/10/03 08:03:13;;;;;;;;;;;;;;;14.78;76.43;101113.95;1357120;93;20251;-86
2021/10/03 08:05:39;;;;;;;;;;;;;;;14.91;75.24;101106.03;1358164;90;20243;-87
2021/10/03 08:08:06;;;;;;;;;;;;;;;15.06;74.12;101104.42;1357531;91;20243;-87
2021/10/03 08:10:32;;;;;;;;;;;;;;;15.17;73.46;101111.31;1357768;91;20221;-87
2021/10/03 08:12:58;;;;;;;;;;;;;;;15.30;73.26;101109.00;1344718;92;20333;-88
2021/10/03 08:15:28;;;;;;;;;;;;;;;15.45;72.17;101110.55;1357473;91;20717;-88
2021/10/03 08:17:55;;;;;;;;;;;;;;;15.54;70.88;101112.26;1338978;92;20358;-88
2021/10/03 08:20:24;;;;;;;;;;;;;;;15.59;67.32;101104.57;1340940;92;20244;-89
2021/10/03 08:22:51;;;;;;;;;;;;;;;15.77;69.85;101109.33;1344605;92;20235;-89
2021/10/03 08:25:17;;;;;;;;;;;;;;;15.85;65.87;101107.65;1357564;91;20243;-92
2021/10/03 08:27:43;;;;;;;;;;;;;;;15.97;66.15;101106.34;1345213;92;20863;-93
2021/10/03 08:30:10;;;;;;;;;;;;;;;16.10;66.95;101109.33;1380117;90;20258;-93
2021/10/03 08:32:37;;;;;;;;;;;;;;;16.27;66.84;101106.66;1380790;89;20813;-93
2021/10/03 08:35:05;;;;;;;;;;;;;;;16.42;65.85;101104.97;1380636;89;20862;-93
2021/10/03 08:37:32;;;;;;;;;;;;;;;16.47;65.95;101112.81;1380298;89;20304;-94
2021/10/03 08:39:59;;;;;;;;;;;;;;;16.58;66.31;101104.12;1379423;89;20773;-90
2021/10/03 08:42:26;;;;;;;;;;;;;;;16.75;66.35;101100.91;1379744;89;20266;-91
2021/10/03 08:44:52;;;;;;;;;;;;;;;16.88;66.09;101098.03;1379558;89;20281;-92
2021/10/03 08:47:24;;;;;;;;;;;;;;;17.04;64.42;101092.31;1379809;89;20845;-91
2021/10/03 08:49:54;;;;;;;;;;;;;;;17.18;65.88;101089.41;1364127;91;20771;-90
2021/10/03 08:52:18;;;;;;;;;;;;;;;17.29;61.79;101083.64;1364672;91;20351;-91
2021/10/03 08:54:44;;;;;;;;;;;;;;;17.33;60.54;101078.28;1360817;90;20268;-91
2021/10/03 08:57:11;;;;;;;;;;;;;;;17.43;62.59;101080.21;1362913;90;20275;-91
2021/10/03 08:59:37;;;;;;;;;;;;;;;17.55;58.47;101083.31;1362861;90;20336;-91
2021/10/03 09:02:55;;;;;;;;;;;;;;;17.71;58.75;101087.23;1353935;91;21117;-91
2021/10/03 09:05:22;;;;;;;;;;;;;;;17.77;59.10;101087.02;1353717;91;20317;-90
2021/10/03 09:08:11;;;;;;;;;;;;;;;17.76;54.97;101085.37;1353871;91;20235;-90
2021/10/03 09:10:51;;;;;;;;;;;;;;;17.86;55.24;101091.33;1339689;92;20762;-90
2021/10/03 09:13:26;;;;;;;;;;;;;;;18.02;53.72;101084.52;1354969;91;20733;-90
2021/10/03 09:16:13;;;;;;;;;;;;;;;18.09;51.10;101077.92;1336999;91;20271;-91
2021/10/03 09:18:48;;;;;;;;;;;;;;;18.36;55.27;101071.15;1353524;91;20301;-91
2021/10/03 09:21:33;;;;;;;;;;;;;;;18.57;54.07;101065.57;1353789;91;20309;-90
2021/10/03 09:24:04;;;;;;;;;;;;;;;18.76;52.04;101065.05;1354945;90;20325;-90
2021/10/03 09:26:31;;;;;;;;;;;;;;;19.07;55.03;101062.64;1352378;91;20340;-90
2021/10/03 09:28:58;;;;;;;;;;;;;;;19.37;53.57;101056.70;1337620;92;20327;-91
2021/10/03 09:31:24;;;;;;;;;;;;;;;19.43;52.15;101063.16;1352523;91;20355;-91
2021/10/03 09:33:53;;;;;;;;;;;;;;;19.56;49.61;101061.45;1352932;91;20315;-90
2021/10/03 09:36:22;;;;;;;;;;;;;;;19.90;50.89;101060.44;1352627;91;20866;-90
2021/10/03 09:38:57;;;;;;;;;;;;;;;20.04;48.36;101059.52;1352742;91;20266;-90
2021/10/03 09:41:26;;;;;;;;;;;;;;;20.20;48.69;101063.28;1352531;91;20275;-91
2021/10/03 09:43:58;;;;;;;;;;;;;;;20.43;48.36;101052.79;1352937;91;20319;-91
2021/10/03 09:46:45;;;;;;;;;;;;;;;20.61;47.27;101059.84;1352358;91;20401;-92
2021/10/03 09:49:19;;;;;;;;;;;;;;;20.79;44.66;101057.14;1352889;91;20319;-91
2021/10/03 09:51:48;;;;;;;;;;;;;;;21.18;49.60;101050.58;1352758;91;20237;-91
2021/10/03 09:54:16;;;;;;;;;;;;;;;21.31;45.30;101052.99;1352733;91;20344;-91
2021/10/03 09:56:43;;;;;;;;;;;;;;;21.45;45.83;101053.37;1356451;90;20251;-92
2021/10/03 09:59:09;;;;;;;;;;;;;;;21.51;46.45;101048.51;1357954;91;20742;-91
2021/10/03 10:01:44;;;;;;;;;;;;;;;21.74;44.88;101054.03;1357481;91;20310;-91
2021/10/03 10:04:45;;;;;;;;;;;;;;;21.76;44.40;101051.45;1357128;92;20876;-90
2021/10/03 10:07:11;;;;;;;;;;;;;;;21.75;43.96;101049.80;1357374;91;20244;-91
2021/10/03 10:09:39;;;;;;;;;;;;;;;21.37;43.33;101044.95;1342230;92;20235;-91
2021/10/03 10:12:12;;;;;;;;;;;;;;;21.22;43.12;101042.09;1354276;90;20274;-92
2021/10/03 10:14:40;;;;;;;;;;;;;;;21.24;42.65;101036.83;1339595;92;20321;-91
2021/10/03 10:17:41;;;;;;;;;;;;;;;21.42;44.66;101036.28;1336584;92;20849;-91
2021/10/03 10:20:24;;;;;;;;;;;;;;;21.70;44.36;101036.11;1339484;92;20343;-92
2021/10/03 10:23:14;;;;;;;;;;;;;;;22.13;44.17;101030.30;1352690;94;20742;-91
2021/10/03 10:25:52;;;;;;;;;;;;;;;22.45;44.91;101021.05;1338982;94;20322;-92
2021/10/03 10:28:30;;;;;;;;;;;;;;;22.81;44.33;101016.44;1339201;93;20753;-92
2021/10/03 10:31:22;;;;;;;;;;;;;;;22.89;37.81;101014.86;1339607;92;20239;-93
2021/10/03 10:33:56;;;;;;;;;;;;;;;23.13;39.70;101006.58;1327253;93;20253;-93
2021/10/03 10:36:32;;;;;;;;;;;;;;;22.86;38.59;100999.09;1340121;92;20253;-91
2021/10/03 10:39:27;;;;;;;;;;;;;;;23.15;41.07;100995.55;1309962;97;20264;-91
2021/10/03 10:41:55;;;;;;;;;;;;;;;23.21;40.37;100993.33;1310064;95;20739;-91
2021/10/03 10:44:29;;;;;;;;;;;;;;;23.41;37.75;100997.25;1343409;94;20383;-92
2021/10/03 10:47:10;;;;;;;;;;;;;;;23.34;38.33;100996.48;1353803;92;20395;-90
2021/10/03 10:49:48;;;;;;;;;;;;;;;23.35;37.65;100994.90;1360593;92;20782;-91
2021/10/03 10:52:22;;;;;;;;;;;;;;;23.49;38.57;100986.71;1339648;92;20254;-92
2021/10/03 10:55:04;;;;;;;;;;;;;;;23.47;37.78;100984.22;1327043;93;20346;-92
2021/10/03 10:57:32;;;;;;;;;;;;;;;23.62;37.47;100980.69;1361117;91;21113;-92
2021/10/03 11:00:18;;;;;;;;;;;;;;;23.84;37.12;100979.78;1360798;91;20797;-92
2021/10/03 11:02:50;;;;;;;;;;;;;;;23.62;36.16;100977.13;1360810;91;20314;-92
2021/10/03 11:05:45;;;;;;;;;;;;;;;23.89;36.14;100981.01;1339674;92;20268;-91
2021/10/03 11:08:17;;;;;;;;;;;;;;;23.96;36.59;100972.30;1326332;95;20313;-89
2021/10/03 11:11:09;;;;;;;;;;;;;;;24.24;36.41;100973.98;1309573;95;20255;-88
2021/10/03 11:13:41;;;;;;;;;;;;;;;24.25;35.63;100976.16;1309359;96;20240;-89
2021/10/03 11:16:37;;;;;;;;;;;;;;;24.15;34.77;100972.63;1343002;92;20326;-89
2021/10/03 11:19:16;;;;;;;;;;;;;;;24.09;34.67;100970.83;1284240;97;20286;-89
2021/10/03 11:21:48;;;;;;;;;;;;;;;24.27;34.83;100974.06;1303226;94;20352;-89
2021/10/03 11:24:25;;;;;;;;;;;;;;;24.26;35.12;100983.23;1342119;92;20378;-89
2021/10/03 11:27:00;;;;;;;;;;;;;;;23.96;33.08;100969.59;1321256;94;20256;-88
2021/10/03 11:29:31;;;;;;;;;;;;;;;24.03;34.76;100973.08;1321266;94;20746;-89
2021/10/03 11:32:04;;;;;;;;;;;;;;;24.28;35.10;100973.00;1309406;95;20253;-89
2021/10/03 11:34:51;;;;;;;;;;;;;;;24.63;36.11;100973.77;1342202;92;20384;-89
2021/10/03 11:37:24;;;;;;;;;;;;;;;24.95;34.15;100959.52;1342799;92;20378;-89
2021/10/03 11:39:56;;;;;;;;;;;;;;;25.09;31.72;100963.69;1322139;93;20233;-89
2021/10/03 11:42:34;;;;;;;;;;;;;;;25.12;33.55;100957.81;1310470;95;20308;-89
2021/10/03 11:45:08;;;;;;;;;;;;;;;25.17;31.48;100965.25;1309886;95;20218;-89
2021/10/03 11:48:06;;;;;;;;;;;;;;;25.37;33.56;100955.47;1321831;94;20245;-88
2021/10/03 11:50:42;;;;;;;;;;;;;;;25.72;32.98;100953.33;1310144;95;20256;-90
2021/10/03 11:53:18;;;;;;;;;;;;;;;25.72;31.24;100943.33;1309714;95;20338;-89
2021/10/03 11:55:44;;;;;;;;;;;;;;;25.91;29.98;100944.05;1322225;93;20372;-89
2021/10/03 11:58:13;;;;;;;;;;;;;;;25.87;30.08;100940.99;1310040;95;20254;-89
2021/10/03 12:00:53;;;;;;;;;;;;;;;25.59;31.32;100937.59;1343664;92;20271;-89
2021/10/03 12:03:21;;;;;;;;;;;;;;;25.21;31.61;100932.06;1343135;92;20249;-89
2021/10/03 12:05:47;;;;;;;;;;;;;;;25.16;32.67;100936.53;1342884;92;20264;-89
2021/10/03 12:08:46;;;;;;;;;;;;;;;25.37;32.03;100925.13;1342823;92;20792;-88
2021/10/03 12:11:18;;;;;;;;;;;;;;;25.48;30.92;100930.28;1321866;93;20241;-89
2021/10/03 12:13:58;;;;;;;;;;;;;;;25.75;29.28;100925.74;1309827;95;20278;-89
2021/10/03 14:56:57;;;;;;;;;;;;;;;26.81;28.72;100851.70;1368262;86;20448;31
2021/10/03 15:01:50;;;;;;;;;;;;;;;25.53;31.31;100854.53;1375753;87;20377;-95
2021/10/03 15:04:19;;;;;;;;;;;;;;;25.01;31.38;100849.47;1357696;88;20731;-96
2021/10/03 15:12:02;;;;;;;;;;;;;;;23.62;34.41;100847.45;1350778;89;20229;-96
2021/10/03 15:14:46;;;;;;;;;;;;;;;23.24;35.24;100851.66;1337984;92;20261;-96
2021/10/03 15:17:13;;;;;;;;;;;;;;;22.87;36.92;100848.30;1340856;94;20258;-96
2021/10/03 15:19:41;;;;;;;;;;;;;;;22.69;37.23;100843.62;1344157;91;20236;-96
2021/10/03 15:22:07;;;;;;;;;;;;;;;22.48;37.40;100850.19;1343563;92;20244;-96
2021/10/03 15:24:34;;;;;;;;;;;;;;;22.24;37.68;100845.52;1343915;92;20742;-96
2021/10/03 15:27:00;;;;;;;;;;;;;;;21.90;38.12;100846.16;1340892;94;21215;-96
2021/10/03 15:29:27;;;;;;;;;;;;;;;21.57;39.14;100840.31;1344480;92;20340;-95
2021/10/03 15:31:53;;;;;;;;;;;;;;;21.27;40.96;100845.82;1344272;92;21149;-96
2021/10/03 15:34:22;;;;;;;;;;;;;;;20.99;40.40;100849.53;1344763;91;20321;-95
2021/10/03 15:36:49;;;;;;;;;;;;;;;20.65;41.93;100842.44;1344682;91;20243;-95
2021/10/03 15:39:15;;;;;;;;;;;;;;;20.33;42.56;100846.15;1344139;92;20237;-95
2021/10/03 15:41:41;;;;;;;;;;;;;;;20.10;42.88;100846.98;1344043;91;20757;-95
2021/10/03 15:44:07;;;;;;;;;;;;;;;19.87;43.50;100840.58;1344379;91;20728;-95
2021/10/03 15:46:39;;;;;;;;;;;;;;;19.65;43.58;100846.05;1344312;92;20408;-95
2021/10/03 15:49:06;;;;;;;;;;;;;;;19.46;44.60;100844.02;1343691;92;20267;-94
2021/10/03 15:51:33;;;;;;;;;;;;;;;19.27;45.61;100852.22;1344233;92;20780;-94
2021/10/03 15:53:59;;;;;;;;;;;;;;;19.04;46.74;100852.44;1344130;92;20387;-96
2021/10/03 15:56:25;;;;;;;;;;;;;;;18.84;46.65;100853.08;1344606;91;20713;-96
2021/10/03 15:59:03;;;;;;;;;;;;;;;18.66;48.30;100854.00;1344681;91;20296;-94
2021/10/03 16:01:29;;;;;;;;;;;;;;;18.44;50.03;100860.69;1345006;91;20831;-93
2021/10/03 16:03:55;;;;;;;;;;;;;;;18.25;50.43;100862.62;1345980;92;20282;-95
2021/10/03 16:06:21;;;;;;;;;;;;;;;18.03;50.89;100862.53;1343645;92;21208;-93
2021/10/03 16:08:47;;;;;;;;;;;;;;;17.83;52.41;100865.45;1343553;91;20727;-94
2021/10/03 16:11:14;;;;;;;;;;;;;;;17.64;52.56;100864.64;1343977;91;20789;-95
2021/10/03 16:13:40;;;;;;;;;;;;;;;17.46;52.86;100864.45;1345090;92;20228;-94
2021/10/03 16:16:42;;;;;;;;;;;;;;;17.29;53.15;100870.48;1343462;91;20348;-93
2021/10/03 16:19:09;;;;;;;;;;;;;;;17.12;52.95;100869.80;1342617;91;20333;-94
2021/10/03 16:21:35;;;;;;;;;;;;;;;16.96;55.15;100872.58;1342925;91;20251;-94
2021/10/03 16:24:04;;;;;;;;;;;;;;;16.82;55.13;100872.02;1341951;91;20342;-93
2021/10/03 16:26:30;;;;;;;;;;;;;;;16.65;56.25;100873.92;1341889;92;20794;-95
2021/10/03 16:28:56;;;;;;;;;;;;;;;16.49;57.18;100873.53;1329142;93;21216;-92
2021/10/03 16:31:22;;;;;;;;;;;;;;;16.37;55.69;100873.57;1329380;93;20301;-94
2021/10/03 16:33:49;;;;;;;;;;;;;;;16.24;56.52;100876.30;1329275;93;20756;-93
2021/10/03 16:36:15;;;;;;;;;;;;;;;16.12;57.96;100872.87;1329161;93;20759;-93
2021/10/03 16:38:43;;;;;;;;;;;;;;;15.98;58.97;100879.75;1329147;93;20729;-95
2021/10/03 16:41:09;;;;;;;;;;;;;;;15.79;60.86;100876.48;1329347;93;20259;-92
2021/10/03 16:43:41;;;;;;;;;;;;;;;15.68;58.53;100882.17;1328897;93;20237;-92
2021/10/03 16:46:07;;;;;;;;;;;;;;;15.58;59.74;100880.14;1328962;93;20230;-93
2021/10/03 16:48:34;;;;;;;;;;;;;;;15.45;60.49;100882.48;1328694;93;20334;-93
2021/10/03 16:51:00;;;;;;;;;;;;;;;15.32;60.66;100879.00;1326506;107;20914;-93
2021/10/03 16:53:28;;;;;;;;;;;;;;;15.20;60.48;100867.02;1323401;94;20385;-95
2021/10/03 16:55:55;;;;;;;;;;;;;;;15.10;60.11;100871.16;1323422;93;20326;-94
2021/10/03 16:58:22;;;;;;;;;;;;;;;15.00;60.78;100873.17;1322642;93;20898;-91
2021/10/03 17:00:50;;;;;;;;;;;;;;;14.89;62.65;100867.16;1333569;93;21349;-92
2021/10/03 17:03:16;;;;;;;;;;;;;;;14.80;63.16;100867.32;1333668;92;20325;-94
2021/10/03 17:05:42;;;;;;;;;;;;;;;14.73;63.70;100864.48;1333789;93;20869;-94
2021/10/03 17:08:08;;;;;;;;;;;;;;;14.65;62.31;100865.30;1333929;93;21467;-96
2021/10/03 17:10:34;;;;;;;;;;;;;;;14.62;62.67;100863.47;1334627;92;20257;-81
2021/10/03 17:13:00;;;;;;;;;;;;;;;14.59;62.48;100871.79;1341503;92;20807;-94
2021/10/03 17:15:27;;;;;;;;;;;;;;;14.56;61.50;100871.61;1340822;92;20301;-94
2021/10/03 17:21:21;;;;;;;;;;;;;;;14.52;63.78;100870.25;1343570;92;20286;-93
2021/10/03 17:23:47;;;;;;;;;;;;;;;14.47;63.25;100869.86;1349581;91;20258;-93
2021/10/03 17:26:19;;;;;;;;;;;;;;;14.47;63.64;100869.03;1343738;92;21389;-94
2021/10/03 17:28:45;;;;;;;;;;;;;;;14.43;63.10;100865.37;1343820;92;20825;-94
2021/10/03 17:31:11;;;;;;;;;;;;;;;14.39;63.63;100865.37;1344185;92;20253;-95
2021/10/03 17:33:38;;;;;;;;;;;;;;;14.36;63.03;100863.03;1343762;92;21338;-94
2021/10/03 17:36:11;;;;;;;;;;;;;;;14.33;64.51;100870.02;1343854;94;20758;-94
2021/10/03 17:38:38;;;;;;;;;;;;;;;14.30;64.97;100873.00;1341140;92;20231;-95
2021/10/03 17:41:04;;;;;;;;;;;;;;;14.27;64.11;100877.31;1306378;95;20388;-94
2021/10/03 17:43:31;;;;;;;;;;;;;;;14.24;64.31;100878.94;1317770;94;20241;-93
2021/10/03 17:45:57;;;;;;;;;;;;;;;14.21;64.09;100877.93;1336145;92;20319;-94
2021/10/03 17:48:23;;;;;;;;;;;;;;;14.16;64.76;100879.77;1335721;93;20315;-92
2021/10/03 17:50:52;;;;;;;;;;;;;;;14.13;64.49;100875.27;1317153;94;21225;-95
2021/10/03 17:53:18;;;;;;;;;;;;;;;14.11;64.60;100877.23;1333544;95;20254;-93
2021/10/03 17:55:50;;;;;;;;;;;;;;;14.07;64.81;100867.89;1344128;92;20245;-93
2021/10/03 17:58:16;;;;;;;;;;;;;;;14.05;63.56;100870.72;1344839;92;20253;-94
2021/10/03 18:00:44;;;;;;;;;;;;;;;14.03;64.77;100876.70;1344648;94;20268;-93
2021/10/03 18:03:10;;;;;;;;;;;;;;;14.04;64.19;100874.86;1343664;92;20349;-93
2021/10/03 18:05:36;;;;;;;;;;;;;;;14.01;64.48;100881.33;1343651;92;20260;-94
2021/10/03 18:08:02;;;;;;;;;;;;;;;13.99;63.66;100885.50;1343416;92;20796;-94
2021/10/03 18:10:28;;;;;;;;;;;;;;;13.97;63.77;100880.82;1343723;92;20825;-91
2021/10/03 18:12:54;;;;;;;;;;;;;;;13.97;63.52;100882.16;1338803;92;20261;-92
2021/10/03 18:15:20;;;;;;;;;;;;;;;13.95;63.74;100877.51;1333417;94;20876;-92
2021/10/03 18:17:46;;;;;;;;;;;;;;;13.93;63.89;100886.14;1300705;97;20418;-92
2021/10/03 18:20:45;;;;;;;;;;;;;;;13.88;64.08;100886.27;1310256;94;20321;-90
2021/10/03 18:23:11;;;;;;;;;;;;;;;13.83;64.96;100884.57;1330004;93;20252;-94
2021/10/03 18:25:43;;;;;;;;;;;;;;;13.76;64.89;100889.70;1330489;93;20293;-93
2021/10/03 18:28:12;;;;;;;;;;;;;;;13.71;64.92;100891.98;1329688;93;20772;-92
2021/10/03 18:30:38;;;;;;;;;;;;;;;13.67;64.94;100893.30;1328368;93;20873;-93